sensor_id;sensor_type;location;lat;lon;timestamp;temperature;humidity
43338;DHT22;28933;52.492;13.434;2023-04-06T00:01:35;7.40;80.10
43338;DHT22;28933;52.492;13.434;2023-04-06T00:04:01;7.40;80.20
43338;DHT22;28933;52.492;13.434;2023-04-06T00:06:27;7.40;80.70
43338;DHT22;28933;52.492;13.434;2023-04-06T00:08:53;7.30;80.20
43338;DHT22;28933;52.492;13.434;2023-04-06T00:11:18;7.30;80.20
43338;DHT22;28933;52.492;13.434;2023-04-06T00:13:45;7.40;80.30
43338;DHT22;28933;52.492;13.434;2023-04-06T00:16:10;7.30;80.40
43338;DHT22;28933;52.492;13.434;2023-04-06T00:18:36;7.30;80.40
43338;DHT22;28933;52.492;13.434;2023-04-06T00:21:03;7.30;80.50
43338;DHT22;28933;52.492;13.434;2023-04-06T00:23:29;7.30;80.60
43338;DHT22;28933;52.492;13.434;2023-04-06T00:25:54;7.30;80.80
43338;DHT22;28933;52.492;13.434;2023-04-06T00:28:21;7.20;80.70
43338;DHT22;28933;52.492;13.434;2023-04-06T00:30:51;7.20;80.80
43338;DHT22;28933;52.492;13.434;2023-04-06T00:33:18;7.20;80.90
43338;DHT22;28933;52.492;13.434;2023-04-06T00:35:44;7.20;80.80
43338;DHT22;28933;52.492;13.434;2023-04-06T00:38:11;7.20;80.80
43338;DHT22;28933;52.492;13.434;2023-04-06T00:40:36;7.20;80.90
43338;DHT22;28933;52.492;13.434;2023-04-06T00:43:02;7.20;80.90
43338;DHT22;28933;52.492;13.434;2023-04-06T00:45:28;7.20;80.90
43338;DHT22;28933;52.492;13.434;2023-04-06T00:47:54;7.10;80.90
43338;DHT22;28933;52.492;13.434;2023-04-06T00:50:20;7.20;81.00
43338;DHT22;28933;52.492;13.434;2023-04-06T00:52:46;7.10;81.00
43338;DHT22;28933;52.492;13.434;2023-04-06T00:55:11;7.10;81.00
43338;DHT22;28933;52.492;13.434;2023-04-06T00:57:37;7.10;81.00
43338;DHT22;28933;52.492;13.434;2023-04-06T01:00:03;7.10;81.00
43338;DHT22;28933;52.492;13.434;2023-04-06T01:02:29;7.10;81.10
43338;DHT22;28933;52.492;13.434;2023-04-06T01:04:55;7.10;81.20
43338;DHT22;28933;52.492;13.434;2023-04-06T01:07:21;7.10;81.10
43338;DHT22;28933;52.492;13.434;2023-04-06T01:09:47;7.10;81.20
43338;DHT22;28933;52.492;13.434;2023-04-06T01:12:13;7.00;81.20
43338;DHT22;28933;52.492;13.434;2023-04-06T01:14:38;7.10;81.30
43338;DHT22;28933;52.492;13.434;2023-04-06T01:17:04;7.00;81.30
43338;DHT22;28933;52.492;13.434;2023-04-06T01:19:30;7.00;81.50
43338;DHT22;28933;52.492;13.434;2023-04-06T01:21:56;7.00;81.50
43338;DHT22;28933;52.492;13.434;2023-04-06T01:24:22;6.90;81.50
43338;DHT22;28933;52.492;13.434;2023-04-06T01:26:48;6.90;81.70
43338;DHT22;28933;52.492;13.434;2023-04-06T01:29:14;6.90;81.70
43338;DHT22;28933;52.492;13.434;2023-04-06T01:31:39;6.90;81.70
43338;DHT22;28933;52.492;13.434;2023-04-06T01:34:06;6.90;81.90
43338;DHT22;28933;52.492;13.434;2023-04-06T01:36:31;6.90;81.90
43338;DHT22;28933;52.492;13.434;2023-04-06T01:38:57;6.90;81.90
43338;DHT22;28933;52.492;13.434;2023-04-06T01:41:23;6.90;82.00
43338;DHT22;28933;52.492;13.434;2023-04-06T01:43:49;6.90;82.00
43338;DHT22;28933;52.492;13.434;2023-04-06T01:46:15;6.90;82.00
43338;DHT22;28933;52.492;13.434;2023-04-06T01:48:42;6.90;82.00
43338;DHT22;28933;52.492;13.434;2023-04-06T01:51:07;6.90;82.00
43338;DHT22;28933;52.492;13.434;2023-04-06T01:53:33;6.80;82.00
43338;DHT22;28933;52.492;13.434;2023-04-06T01:55:59;6.80;82.00
43338;DHT22;28933;52.492;13.434;2023-04-06T01:58:25;6.80;82.00
43338;DHT22;28933;52.492;13.434;2023-04-06T02:00:51;6.80;82.10
43338;DHT22;28933;52.492;13.434;2023-04-06T02:03:17;6.70;82.20
43338;DHT22;28933;52.492;13.434;2023-04-06T02:05:42;6.70;82.20
43338;DHT22;28933;52.492;13.434;2023-04-06T02:08:08;6.70;82.20
43338;DHT22;28933;52.492;13.434;2023-04-06T02:10:34;6.70;82.30
43338;DHT22;28933;52.492;13.434;2023-04-06T02:13:01;6.70;82.30
43338;DHT22;28933;52.492;13.434;2023-04-06T02:15:28;6.70;82.30
43338;DHT22;28933;52.492;13.434;2023-04-06T02:17:53;6.70;82.40
43338;DHT22;28933;52.492;13.434;2023-04-06T02:20:19;6.60;82.40
43338;DHT22;28933;52.492;13.434;2023-04-06T02:22:45;6.60;82.50
43338;DHT22;28933;52.492;13.434;2023-04-06T02:25:11;6.60;82.50
43338;DHT22;28933;52.492;13.434;2023-04-06T02:27:37;6.60;82.60
43338;DHT22;28933;52.492;13.434;2023-04-06T02:30:03;6.60;82.60
43338;DHT22;28933;52.492;13.434;2023-04-06T02:32:29;6.60;82.60
43338;DHT22;28933;52.492;13.434;2023-04-06T02:34:55;6.60;82.60
43338;DHT22;28933;52.492;13.434;2023-04-06T02:37:21;6.60;82.60
43338;DHT22;28933;52.492;13.434;2023-04-06T02:39:48;6.50;82.50
43338;DHT22;28933;52.492;13.434;2023-04-06T02:42:14;6.50;82.60
43338;DHT22;28933;52.492;13.434;2023-04-06T02:44:41;6.50;82.60
43338;DHT22;28933;52.492;13.434;2023-04-06T02:47:07;6.50;82.80
43338;DHT22;28933;52.492;13.434;2023-04-06T02:49:33;6.40;82.80
43338;DHT22;28933;52.492;13.434;2023-04-06T02:51:59;6.40;83.30
43338;DHT22;28933;52.492;13.434;2023-04-06T02:54:24;6.40;83.00
43338;DHT22;28933;52.492;13.434;2023-04-06T02:56:50;6.40;83.10
43338;DHT22;28933;52.492;13.434;2023-04-06T02:59:16;6.40;83.10
43338;DHT22;28933;52.492;13.434;2023-04-06T03:01:42;6.40;83.10
43338;DHT22;28933;52.492;13.434;2023-04-06T03:04:07;6.30;83.20
43338;DHT22;28933;52.492;13.434;2023-04-06T03:06:33;6.30;83.20
43338;DHT22;28933;52.492;13.434;2023-04-06T03:08:59;6.30;83.40
43338;DHT22;28933;52.492;13.434;2023-04-06T03:11:24;6.20;83.50
43338;DHT22;28933;52.492;13.434;2023-04-06T03:13:51;6.20;83.60
43338;DHT22;28933;52.492;13.434;2023-04-06T03:16:17;6.10;83.70
43338;DHT22;28933;52.492;13.434;2023-04-06T03:18:43;6.10;83.90
43338;DHT22;28933;52.492;13.434;2023-04-06T03:21:10;6.00;84.00
43338;DHT22;28933;52.492;13.434;2023-04-06T03:23:36;6.00;84.10
43338;DHT22;28933;52.492;13.434;2023-04-06T03:26:02;5.90;84.20
43338;DHT22;28933;52.492;13.434;2023-04-06T03:28:29;5.90;84.30
43338;DHT22;28933;52.492;13.434;2023-04-06T03:30:54;5.90;84.40
43338;DHT22;28933;52.492;13.434;2023-04-06T03:33:20;5.80;84.40
43338;DHT22;28933;52.492;13.434;2023-04-06T03:35:46;5.80;84.50
43338;DHT22;28933;52.492;13.434;2023-04-06T03:38:11;5.80;84.60
43338;DHT22;28933;52.492;13.434;2023-04-06T03:40:37;5.80;84.60
43338;DHT22;28933;52.492;13.434;2023-04-06T03:43:04;5.70;84.70
43338;DHT22;28933;52.492;13.434;2023-04-06T03:45:29;5.70;84.80
43338;DHT22;28933;52.492;13.434;2023-04-06T03:47:55;5.70;84.90
43338;DHT22;28933;52.492;13.434;2023-04-06T03:50:21;5.60;85.00
43338;DHT22;28933;52.492;13.434;2023-04-06T03:52:47;5.60;85.00
43338;DHT22;28933;52.492;13.434;2023-04-06T03:55:12;5.60;85.60
43338;DHT22;28933;52.492;13.434;2023-04-06T03:57:38;5.60;85.20
43338;DHT22;28933;52.492;13.434;2023-04-06T04:00:04;5.50;85.10
43338;DHT22;28933;52.492;13.434;2023-04-06T04:02:30;5.50;85.20
43338;DHT22;28933;52.492;13.434;2023-04-06T04:04:56;5.50;85.30
43338;DHT22;28933;52.492;13.434;2023-04-06T04:07:22;5.50;85.40
43338;DHT22;28933;52.492;13.434;2023-04-06T04:09:47;5.50;85.50
43338;DHT22;28933;52.492;13.434;2023-04-06T04:12:13;5.50;85.60
43338;DHT22;28933;52.492;13.434;2023-04-06T04:14:40;5.40;85.80
43338;DHT22;28933;52.492;13.434;2023-04-06T04:17:05;5.40;85.90
43338;DHT22;28933;52.492;13.434;2023-04-06T04:19:31;5.40;86.00
43338;DHT22;28933;52.492;13.434;2023-04-06T04:21:57;5.30;86.10
43338;DHT22;28933;52.492;13.434;2023-04-06T04:24:22;5.30;86.20
43338;DHT22;28933;52.492;13.434;2023-04-06T04:26:48;5.30;86.50
43338;DHT22;28933;52.492;13.434;2023-04-06T04:29:14;5.20;86.70
43338;DHT22;28933;52.492;13.434;2023-04-06T04:31:40;5.20;86.90
43338;DHT22;28933;52.492;13.434;2023-04-06T04:34:06;5.20;87.10
43338;DHT22;28933;52.492;13.434;2023-04-06T04:36:32;5.20;87.30
43338;DHT22;28933;52.492;13.434;2023-04-06T04:38:58;5.10;87.50
43338;DHT22;28933;52.492;13.434;2023-04-06T04:41:26;5.10;87.70
43338;DHT22;28933;52.492;13.434;2023-04-06T04:43:52;5.10;87.80
43338;DHT22;28933;52.492;13.434;2023-04-06T04:46:18;5.00;88.10
43338;DHT22;28933;52.492;13.434;2023-04-06T04:48:43;5.00;88.30
43338;DHT22;28933;52.492;13.434;2023-04-06T04:51:09;5.00;88.80
43338;DHT22;28933;52.492;13.434;2023-04-06T04:53:35;5.00;88.80
43338;DHT22;28933;52.492;13.434;2023-04-06T04:56:01;5.00;89.10
43338;DHT22;28933;52.492;13.434;2023-04-06T04:58:26;4.90;89.20
43338;DHT22;28933;52.492;13.434;2023-04-06T05:00:52;4.90;89.40
43338;DHT22;28933;52.492;13.434;2023-04-06T05:03:21;4.90;89.70
43338;DHT22;28933;52.492;13.434;2023-04-06T05:05:48;4.90;89.90
43338;DHT22;28933;52.492;13.434;2023-04-06T05:08:15;4.90;90.00
43338;DHT22;28933;52.492;13.434;2023-04-06T05:10:41;4.90;90.10
43338;DHT22;28933;52.492;13.434;2023-04-06T05:13:07;4.80;90.20
43338;DHT22;28933;52.492;13.434;2023-04-06T05:15:33;4.80;90.50
43338;DHT22;28933;52.492;13.434;2023-04-06T05:18:00;4.90;90.40
43338;DHT22;28933;52.492;13.434;2023-04-06T05:20:27;4.80;90.40
43338;DHT22;28933;52.492;13.434;2023-04-06T05:22:53;4.90;90.50
43338;DHT22;28933;52.492;13.434;2023-04-06T05:25:19;4.90;90.60
43338;DHT22;28933;52.492;13.434;2023-04-06T05:27:45;4.90;90.60
43338;DHT22;28933;52.492;13.434;2023-04-06T05:30:11;4.90;90.70
43338;DHT22;28933;52.492;13.434;2023-04-06T05:32:36;4.90;90.70
43338;DHT22;28933;52.492;13.434;2023-04-06T05:35:03;5.00;90.80
43338;DHT22;28933;52.492;13.434;2023-04-06T05:37:28;5.00;90.90
43338;DHT22;28933;52.492;13.434;2023-04-06T05:39:54;5.00;91.10
43338;DHT22;28933;52.492;13.434;2023-04-06T05:42:21;5.00;91.00
43338;DHT22;28933;52.492;13.434;2023-04-06T05:44:47;5.00;91.00
43338;DHT22;28933;52.492;13.434;2023-04-06T05:47:13;5.10;91.00
43338;DHT22;28933;52.492;13.434;2023-04-06T05:49:38;5.10;91.10
43338;DHT22;28933;52.492;13.434;2023-04-06T05:52:04;5.20;91.10
43338;DHT22;28933;52.492;13.434;2023-04-06T05:54:30;5.20;91.10
43338;DHT22;28933;52.492;13.434;2023-04-06T05:56:56;5.20;91.10
43338;DHT22;28933;52.492;13.434;2023-04-06T05:59:22;5.30;91.10
43338;DHT22;28933;52.492;13.434;2023-04-06T06:01:49;5.30;91.10
43338;DHT22;28933;52.492;13.434;2023-04-06T06:04:14;5.30;91.10
43338;DHT22;28933;52.492;13.434;2023-04-06T06:06:40;5.40;91.10
43338;DHT22;28933;52.492;13.434;2023-04-06T06:09:06;5.40;91.10
43338;DHT22;28933;52.492;13.434;2023-04-06T06:11:31;5.40;91.20
43338;DHT22;28933;52.492;13.434;2023-04-06T06:13:58;5.50;91.20
43338;DHT22;28933;52.492;13.434;2023-04-06T06:16:24;5.60;91.20
43338;DHT22;28933;52.492;13.434;2023-04-06T06:18:49;5.60;91.10
43338;DHT22;28933;52.492;13.434;2023-04-06T06:21:15;5.70;91.00
43338;DHT22;28933;52.492;13.434;2023-04-06T06:23:43;5.70;91.00
43338;DHT22;28933;52.492;13.434;2023-04-06T06:26:08;5.80;90.90
43338;DHT22;28933;52.492;13.434;2023-04-06T06:28:34;5.90;90.80
43338;DHT22;28933;52.492;13.434;2023-04-06T06:31:00;6.00;90.80
43338;DHT22;28933;52.492;13.434;2023-04-06T06:33:26;6.00;90.70
43338;DHT22;28933;52.492;13.434;2023-04-06T06:35:52;6.10;90.70
43338;DHT22;28933;52.492;13.434;2023-04-06T06:38:18;6.10;90.60
43338;DHT22;28933;52.492;13.434;2023-04-06T06:40:45;6.20;90.60
43338;DHT22;28933;52.492;13.434;2023-04-06T06:43:11;6.20;90.50
43338;DHT22;28933;52.492;13.434;2023-04-06T06:45:37;6.30;90.50
43338;DHT22;28933;52.492;13.434;2023-04-06T06:48:03;6.30;90.40
43338;DHT22;28933;52.492;13.434;2023-04-06T06:50:28;6.40;90.30
43338;DHT22;28933;52.492;13.434;2023-04-06T06:52:54;6.50;90.30
43338;DHT22;28933;52.492;13.434;2023-04-06T06:55:21;6.50;90.20
43338;DHT22;28933;52.492;13.434;2023-04-06T06:57:46;6.60;90.10
43338;DHT22;28933;52.492;13.434;2023-04-06T07:00:14;6.70;90.00
43338;DHT22;28933;52.492;13.434;2023-04-06T07:02:40;6.70;89.90
43338;DHT22;28933;52.492;13.434;2023-04-06T07:05:07;6.70;89.80
43338;DHT22;28933;52.492;13.434;2023-04-06T07:07:33;6.80;89.60
43338;DHT22;28933;52.492;13.434;2023-04-06T07:09:59;6.90;89.50
43338;DHT22;28933;52.492;13.434;2023-04-06T07:12:25;6.90;89.30
43338;DHT22;28933;52.492;13.434;2023-04-06T07:14:51;6.90;89.30
43338;DHT22;28933;52.492;13.434;2023-04-06T07:17:17;7.00;89.20
43338;DHT22;28933;52.492;13.434;2023-04-06T07:19:43;7.00;89.10
43338;DHT22;28933;52.492;13.434;2023-04-06T07:22:09;7.00;88.90
43338;DHT22;28933;52.492;13.434;2023-04-06T07:24:35;7.10;88.80
43338;DHT22;28933;52.492;13.434;2023-04-06T07:27:00;7.10;88.50
43338;DHT22;28933;52.492;13.434;2023-04-06T07:29:27;7.20;88.60
43338;DHT22;28933;52.492;13.434;2023-04-06T07:31:53;7.20;89.00
43338;DHT22;28933;52.492;13.434;2023-04-06T07:34:19;7.30;88.20
43338;DHT22;28933;52.492;13.434;2023-04-06T07:36:45;7.40;88.00
43338;DHT22;28933;52.492;13.434;2023-04-06T07:39:11;7.40;87.70
43338;DHT22;28933;52.492;13.434;2023-04-06T07:41:37;7.50;87.30
43338;DHT22;28933;52.492;13.434;2023-04-06T07:44:03;7.50;87.00
43338;DHT22;28933;52.492;13.434;2023-04-06T07:46:29;7.60;86.60
43338;DHT22;28933;52.492;13.434;2023-04-06T07:48:56;7.60;86.50
43338;DHT22;28933;52.492;13.434;2023-04-06T07:51:22;7.70;86.40
43338;DHT22;28933;52.492;13.434;2023-04-06T07:53:48;7.70;86.20
43338;DHT22;28933;52.492;13.434;2023-04-06T07:56:13;7.80;86.00
43338;DHT22;28933;52.492;13.434;2023-04-06T07:58:41;7.90;85.80
43338;DHT22;28933;52.492;13.434;2023-04-06T08:01:06;7.90;85.40
43338;DHT22;28933;52.492;13.434;2023-04-06T08:03:36;8.00;85.00
43338;DHT22;28933;52.492;13.434;2023-04-06T08:06:02;8.00;84.90
43338;DHT22;28933;52.492;13.434;2023-04-06T08:08:29;8.10;84.80
43338;DHT22;28933;52.492;13.434;2023-04-06T08:10:54;8.20;84.10
43338;DHT22;28933;52.492;13.434;2023-04-06T08:13:21;8.20;83.80
43338;DHT22;28933;52.492;13.434;2023-04-06T08:15:46;8.30;83.60
43338;DHT22;28933;52.492;13.434;2023-04-06T08:18:12;8.40;83.50
43338;DHT22;28933;52.492;13.434;2023-04-06T08:20:39;8.40;83.20
43338;DHT22;28933;52.492;13.434;2023-04-06T08:23:05;8.50;82.90
43338;DHT22;28933;52.492;13.434;2023-04-06T08:25:33;8.50;82.40
43338;DHT22;28933;52.492;13.434;2023-04-06T08:27:59;8.60;82.20
43338;DHT22;28933;52.492;13.434;2023-04-06T08:30:25;8.70;82.20
43338;DHT22;28933;52.492;13.434;2023-04-06T08:32:51;8.70;81.30
43338;DHT22;28933;52.492;13.434;2023-04-06T08:35:17;8.70;81.00
43338;DHT22;28933;52.492;13.434;2023-04-06T08:37:55;8.80;80.60
43338;DHT22;28933;52.492;13.434;2023-04-06T08:40:22;8.90;80.40
43338;DHT22;28933;52.492;13.434;2023-04-06T08:42:52;8.90;79.90
43338;DHT22;28933;52.492;13.434;2023-04-06T08:45:18;9.00;79.70
43338;DHT22;28933;52.492;13.434;2023-04-06T08:47:47;9.00;79.20
43338;DHT22;28933;52.492;13.434;2023-04-06T08:50:14;9.10;78.90
43338;DHT22;28933;52.492;13.434;2023-04-06T08:52:43;9.20;78.90
43338;DHT22;28933;52.492;13.434;2023-04-06T08:55:09;9.20;78.70
43338;DHT22;28933;52.492;13.434;2023-04-06T08:57:36;9.30;79.00
43338;DHT22;28933;52.492;13.434;2023-04-06T09:00:02;9.40;78.30
43338;DHT22;28933;52.492;13.434;2023-04-06T09:02:28;9.40;77.30
43338;DHT22;28933;52.492;13.434;2023-04-06T09:04:54;9.50;76.90
43338;DHT22;28933;52.492;13.434;2023-04-06T09:07:21;9.50;76.50
43338;DHT22;28933;52.492;13.434;2023-04-06T09:09:46;9.60;76.50
43338;DHT22;28933;52.492;13.434;2023-04-06T09:12:24;9.60;75.80
43338;DHT22;28933;52.492;13.434;2023-04-06T09:14:50;9.70;75.40
43338;DHT22;28933;52.492;13.434;2023-04-06T09:17:23;9.70;75.40
43338;DHT22;28933;52.492;13.434;2023-04-06T09:19:50;9.80;75.20
43338;DHT22;28933;52.492;13.434;2023-04-06T09:22:16;9.80;75.10
43338;DHT22;28933;52.492;13.434;2023-04-06T09:24:51;9.90;74.40
43338;DHT22;28933;52.492;13.434;2023-04-06T09:27:18;10.00;73.80
43338;DHT22;28933;52.492;13.434;2023-04-06T09:30:08;10.00;73.70
43338;DHT22;28933;52.492;13.434;2023-04-06T09:32:53;10.10;73.70
43338;DHT22;28933;52.492;13.434;2023-04-06T09:35:21;10.20;73.90
43338;DHT22;28933;52.492;13.434;2023-04-06T09:37:51;10.20;73.20
43338;DHT22;28933;52.492;13.434;2023-04-06T09:40:17;10.30;72.80
43338;DHT22;28933;52.492;13.434;2023-04-06T09:42:48;10.40;72.40
43338;DHT22;28933;52.492;13.434;2023-04-06T09:45:15;10.50;71.50
43338;DHT22;28933;52.492;13.434;2023-04-06T09:47:45;10.60;71.10
43338;DHT22;28933;52.492;13.434;2023-04-06T09:50:12;10.60;70.00
43338;DHT22;28933;52.492;13.434;2023-04-06T09:52:50;10.60;69.70
43338;DHT22;28933;52.492;13.434;2023-04-06T09:55:30;10.70;69.30
43338;DHT22;28933;52.492;13.434;2023-04-06T09:58:05;10.70;69.20
43338;DHT22;28933;52.492;13.434;2023-04-06T10:00:34;10.80;68.90
43338;DHT22;28933;52.492;13.434;2023-04-06T10:03:19;10.80;68.80
43338;DHT22;28933;52.492;13.434;2023-04-06T10:05:50;10.90;68.40
43338;DHT22;28933;52.492;13.434;2023-04-06T10:08:19;10.90;67.90
43338;DHT22;28933;52.492;13.434;2023-04-06T10:10:47;11.00;67.70
43338;DHT22;28933;52.492;13.434;2023-04-06T10:13:14;11.10;67.80
43338;DHT22;28933;52.492;13.434;2023-04-06T10:15:41;11.20;67.60
43338;DHT22;28933;52.492;13.434;2023-04-06T10:18:08;11.30;67.30
43338;DHT22;28933;52.492;13.434;2023-04-06T10:23:36;11.50;65.80
43338;DHT22;28933;52.492;13.434;2023-04-06T10:26:14;11.60;65.50
43338;DHT22;28933;52.492;13.434;2023-04-06T10:28:42;11.70;66.00
43338;DHT22;28933;52.492;13.434;2023-04-06T10:31:08;11.80;66.00
43338;DHT22;28933;52.492;13.434;2023-04-06T10:33:38;11.80;65.10
43338;DHT22;28933;52.492;13.434;2023-04-06T10:36:26;11.80;64.50
43338;DHT22;28933;52.492;13.434;2023-04-06T10:38:58;11.80;64.00
43338;DHT22;28933;52.492;13.434;2023-04-06T10:41:31;11.80;63.70
43338;DHT22;28933;52.492;13.434;2023-04-06T10:43:57;11.80;63.60
43338;DHT22;28933;52.492;13.434;2023-04-06T10:46:28;11.80;63.40
43338;DHT22;28933;52.492;13.434;2023-04-06T10:48:55;11.90;63.60
43338;DHT22;28933;52.492;13.434;2023-04-06T10:51:25;11.90;63.40
43338;DHT22;28933;52.492;13.434;2023-04-06T10:53:53;12.00;62.70
43338;DHT22;28933;52.492;13.434;2023-04-06T10:56:23;12.10;62.10
43338;DHT22;28933;52.492;13.434;2023-04-06T10:58:51;12.20;61.30
43338;DHT22;28933;52.492;13.434;2023-04-06T11:01:20;12.30;60.80
43338;DHT22;28933;52.492;13.434;2023-04-06T11:03:48;12.30;60.90
43338;DHT22;28933;52.492;13.434;2023-04-06T11:06:24;12.40;60.90
43338;DHT22;28933;52.492;13.434;2023-04-06T11:08:51;12.50;61.20
43338;DHT22;28933;52.492;13.434;2023-04-06T11:11:19;12.50;61.00
43338;DHT22;28933;52.492;13.434;2023-04-06T11:13:57;12.50;60.80
43338;DHT22;28933;52.492;13.434;2023-04-06T11:16:29;12.50;60.60
43338;DHT22;28933;52.492;13.434;2023-04-06T11:19:03;12.50;60.50
43338;DHT22;28933;52.492;13.434;2023-04-06T11:26:49;12.70;59.60
43338;DHT22;28933;52.492;13.434;2023-04-06T11:29:23;12.70;59.00
43338;DHT22;28933;52.492;13.434;2023-04-06T11:31:52;12.80;59.00
43338;DHT22;28933;52.492;13.434;2023-04-06T11:34:20;12.80;58.70
43338;DHT22;28933;52.492;13.434;2023-04-06T11:36:48;12.80;57.30
43338;DHT22;28933;52.492;13.434;2023-04-06T11:39:19;12.70;56.90
43338;DHT22;28933;52.492;13.434;2023-04-06T11:41:52;12.80;57.60
43338;DHT22;28933;52.492;13.434;2023-04-06T11:44:38;12.80;57.90
43338;DHT22;28933;52.492;13.434;2023-04-06T11:47:06;12.90;57.90
43338;DHT22;28933;52.492;13.434;2023-04-06T11:49:33;12.90;57.80
43338;DHT22;28933;52.492;13.434;2023-04-06T11:52:02;12.80;57.40
43338;DHT22;28933;52.492;13.434;2023-04-06T11:54:35;12.90;57.50
43338;DHT22;28933;52.492;13.434;2023-04-06T11:57:05;12.80;57.40
43338;DHT22;28933;52.492;13.434;2023-04-06T11:59:32;12.80;58.10
43338;DHT22;28933;52.492;13.434;2023-04-06T12:01:58;12.80;57.10
43338;DHT22;28933;52.492;13.434;2023-04-06T12:04:24;12.90;57.60
43338;DHT22;28933;52.492;13.434;2023-04-06T12:06:50;13.00;57.40
43338;DHT22;28933;52.492;13.434;2023-04-06T12:09:17;13.10;56.80
43338;DHT22;28933;52.492;13.434;2023-04-06T12:11:43;13.30;56.90
43338;DHT22;28933;52.492;13.434;2023-04-06T12:14:09;13.40;56.60
43338;DHT22;28933;52.492;13.434;2023-04-06T12:16:35;13.40;55.80
43338;DHT22;28933;52.492;13.434;2023-04-06T12:19:01;13.40;55.70
43338;DHT22;28933;52.492;13.434;2023-04-06T12:21:30;13.40;55.70
43338;DHT22;28933;52.492;13.434;2023-04-06T12:23:57;13.30;56.00
43338;DHT22;28933;52.492;13.434;2023-04-06T12:26:24;13.40;55.90
43338;DHT22;28933;52.492;13.434;2023-04-06T12:28:50;13.40;55.70
43338;DHT22;28933;52.492;13.434;2023-04-06T12:31:20;13.40;55.50
43338;DHT22;28933;52.492;13.434;2023-04-06T12:33:47;13.40;55.00
43338;DHT22;28933;52.492;13.434;2023-04-06T12:36:18;13.30;55.00
43338;DHT22;28933;52.492;13.434;2023-04-06T12:38:47;13.30;54.70
43338;DHT22;28933;52.492;13.434;2023-04-06T12:41:13;13.40;54.60
43338;DHT22;28933;52.492;13.434;2023-04-06T12:43:41;13.50;54.60
43338;DHT22;28933;52.492;13.434;2023-04-06T12:46:07;13.50;54.10
43338;DHT22;28933;52.492;13.434;2023-04-06T12:48:32;13.60;54.30
43338;DHT22;28933;52.492;13.434;2023-04-06T12:51:01;13.60;53.90
43338;DHT22;28933;52.492;13.434;2023-04-06T12:53:27;13.70;54.00
43338;DHT22;28933;52.492;13.434;2023-04-06T12:55:54;13.70;54.10
43338;DHT22;28933;52.492;13.434;2023-04-06T12:58:20;13.80;54.00
43338;DHT22;28933;52.492;13.434;2023-04-06T13:00:50;13.90;53.80
43338;DHT22;28933;52.492;13.434;2023-04-06T13:03:17;13.90;53.50
43338;DHT22;28933;52.492;13.434;2023-04-06T13:05:47;14.00;53.40
43338;DHT22;28933;52.492;13.434;2023-04-06T13:08:13;14.00;53.50
43338;DHT22;28933;52.492;13.434;2023-04-06T13:10:50;14.10;53.30
43338;DHT22;28933;52.492;13.434;2023-04-06T13:13:18;14.10;52.30
43338;DHT22;28933;52.492;13.434;2023-04-06T13:15:44;14.00;52.30
43338;DHT22;28933;52.492;13.434;2023-04-06T13:18:10;14.00;52.60
43338;DHT22;28933;52.492;13.434;2023-04-06T13:20:36;14.00;52.90
43338;DHT22;28933;52.492;13.434;2023-04-06T13:23:02;13.90;52.00
43338;DHT22;28933;52.492;13.434;2023-04-06T13:25:29;13.70;52.00
43338;DHT22;28933;52.492;13.434;2023-04-06T13:27:55;13.60;52.40
43338;DHT22;28933;52.492;13.434;2023-04-06T13:30:21;13.60;52.80
43338;DHT22;28933;52.492;13.434;2023-04-06T13:32:47;13.60;52.30
43338;DHT22;28933;52.492;13.434;2023-04-06T13:35:12;13.60;52.30
43338;DHT22;28933;52.492;13.434;2023-04-06T13:37:39;13.70;52.30
43338;DHT22;28933;52.492;13.434;2023-04-06T13:40:05;13.80;52.00
43338;DHT22;28933;52.492;13.434;2023-04-06T13:42:31;13.80;51.90
43338;DHT22;28933;52.492;13.434;2023-04-06T13:44:58;13.90;51.80
43338;DHT22;28933;52.492;13.434;2023-04-06T13:47:24;14.00;51.90
43338;DHT22;28933;52.492;13.434;2023-04-06T13:49:51;14.00;52.10
43338;DHT22;28933;52.492;13.434;2023-04-06T13:52:18;13.90;52.00
43338;DHT22;28933;52.492;13.434;2023-04-06T13:54:45;13.90;51.90
43338;DHT22;28933;52.492;13.434;2023-04-06T13:57:12;13.70;52.00
43338;DHT22;28933;52.492;13.434;2023-04-06T13:59:38;13.70;53.20
43338;DHT22;28933;52.492;13.434;2023-04-06T14:02:06;13.80;52.80
43338;DHT22;28933;52.492;13.434;2023-04-06T14:04:32;13.80;52.40
43338;DHT22;28933;52.492;13.434;2023-04-06T14:06:59;13.70;52.20
43338;DHT22;28933;52.492;13.434;2023-04-06T14:09:26;13.70;52.10
43338;DHT22;28933;52.492;13.434;2023-04-06T14:11:52;13.60;51.80
43338;DHT22;28933;52.492;13.434;2023-04-06T14:14:17;13.60;51.60
43338;DHT22;28933;52.492;13.434;2023-04-06T14:16:43;13.60;52.00
43338;DHT22;28933;52.492;13.434;2023-04-06T14:19:15;13.70;52.60
43338;DHT22;28933;52.492;13.434;2023-04-06T14:21:47;13.90;52.80
43338;DHT22;28933;52.492;13.434;2023-04-06T14:24:13;14.00;52.50
43338;DHT22;28933;52.492;13.434;2023-04-06T14:26:39;14.00;52.20
43338;DHT22;28933;52.492;13.434;2023-04-06T14:29:07;14.00;52.10
43338;DHT22;28933;52.492;13.434;2023-04-06T14:31:33;13.90;52.00
43338;DHT22;28933;52.492;13.434;2023-04-06T14:34:01;13.80;51.70
43338;DHT22;28933;52.492;13.434;2023-04-06T14:36:26;13.80;51.60
43338;DHT22;28933;52.492;13.434;2023-04-06T14:38:57;13.60;51.50
43338;DHT22;28933;52.492;13.434;2023-04-06T14:41:24;13.60;51.60
43338;DHT22;28933;52.492;13.434;2023-04-06T14:43:52;13.50;51.40
43338;DHT22;28933;52.492;13.434;2023-04-06T14:46:18;13.40;51.70
43338;DHT22;28933;52.492;13.434;2023-04-06T14:48:44;13.50;51.90
43338;DHT22;28933;52.492;13.434;2023-04-06T14:51:10;13.50;51.90
43338;DHT22;28933;52.492;13.434;2023-04-06T14:53:37;13.60;51.70
43338;DHT22;28933;52.492;13.434;2023-04-06T14:56:03;13.70;51.50
43338;DHT22;28933;52.492;13.434;2023-04-06T14:58:28;13.70;51.40
43338;DHT22;28933;52.492;13.434;2023-04-06T15:00:58;13.80;51.70
43338;DHT22;28933;52.492;13.434;2023-04-06T15:03:25;13.90;51.30
43338;DHT22;28933;52.492;13.434;2023-04-06T15:05:52;13.90;51.00
43338;DHT22;28933;52.492;13.434;2023-04-06T15:08:17;13.80;50.50
43338;DHT22;28933;52.492;13.434;2023-04-06T15:10:46;13.80;50.70
43338;DHT22;28933;52.492;13.434;2023-04-06T15:13:12;13.80;50.40
43338;DHT22;28933;52.492;13.434;2023-04-06T15:15:37;13.80;50.80
43338;DHT22;28933;52.492;13.434;2023-04-06T15:18:03;13.80;51.00
43338;DHT22;28933;52.492;13.434;2023-04-06T15:20:29;14.00;51.00
43338;DHT22;28933;52.492;13.434;2023-04-06T15:22:56;13.90;49.80
43338;DHT22;28933;52.492;13.434;2023-04-06T15:25:21;13.90;50.10
43338;DHT22;28933;52.492;13.434;2023-04-06T15:27:47;13.80;50.00
43338;DHT22;28933;52.492;13.434;2023-04-06T15:30:13;13.70;49.60
43338;DHT22;28933;52.492;13.434;2023-04-06T15:32:38;13.60;49.80